Time;durP1;ratioP1;P1;durP2;ratioP2;P2;SDS_P1;SDS_P2;PMS_P1;PMS_P2;Temp;Humidity;BMP_temperature;BMP_pressure;BME280_temperature;BME280_humidity;BME280_pressure;Samples;Min_cycle;Max_cycle;Signal;HPM_P1;HPM_P2
2022/05/04 00:00:50;;;;;;;;;;;24.30;39.20;;;;;;5070552;28;19924;-73
2022/05/04 00:03:17;;;;;;;;;;;24.30;39.20;;;;;;5070835;28;19993;-73
2022/05/04 00:05:44;;;;;;;;;;;24.20;39.10;;;;;;5070711;28;20354;-72
2022/05/04 00:08:11;;;;;;;;;;;24.20;39.20;;;;;;5065790;28;20109;-72
2022/05/04 00:10:38;;;;;;;;;;;24.20;39.20;;;;;;5070267;28;20030;-74
2022/05/04 00:13:05;;;;;;;;;;;24.30;39.20;;;;;;5070482;28;20350;-72
2022/05/04 00:15:32;;;;;;;;;;;24.20;39.10;;;;;;5068349;28;19924;-72
2022/05/04 00:18:00;;;;;;;;;;;24.20;39.10;;;;;;5070461;28;19935;-72
2022/05/04 00:20:27;;;;;;;;;;;24.20;39.10;;;;;;5070762;28;20136;-72
2022/05/04 00:22:54;;;;;;;;;;;24.30;39.20;;;;;;5070078;28;19979;-72
2022/05/04 00:25:21;;;;;;;;;;;24.20;39.10;;;;;;5069913;28;20157;-73
2022/05/04 00:27:48;;;;;;;;;;;24.20;39.10;;;;;;5068938;28;19972;-73
2022/05/04 00:30:15;;;;;;;;;;;24.20;39.10;;;;;;5069881;28;19963;-73
2022/05/04 00:32:44;;;;;;;;;;;24.20;39.10;;;;;;5070693;28;19978;-73
2022/05/04 00:35:11;;;;;;;;;;;24.20;39.10;;;;;;5070133;28;20414;-72
2022/05/04 00:37:38;;;;;;;;;;;24.20;39.10;;;;;;5070167;28;20419;-72
2022/05/04 00:40:05;;;;;;;;;;;24.20;39.10;;;;;;5065127;28;20478;-73
2022/05/04 00:42:32;;;;;;;;;;;24.20;39.10;;;;;;5069092;28;20530;-72
2022/05/04 00:44:59;;;;;;;;;;;24.20;39.10;;;;;;5069920;28;20265;-73
2022/05/04 00:47:26;;;;;;;;;;;24.20;39.10;;;;;;5068667;28;19932;-72
2022/05/04 00:49:53;;;;;;;;;;;24.20;39.10;;;;;;5070365;28;19946;-73
2022/05/04 00:52:21;;;;;;;;;;;24.20;39.10;;;;;;5069605;28;19925;-72
2022/05/04 00:54:51;;;;;;;;;;;24.20;39.10;;;;;;5069963;28;19932;-72
2022/05/04 00:58:54;;;;;;;;;;;24.20;39.10;;;;;;5069677;28;19924;-71
2022/05/04 01:00:07;;;;;;;;;;;24.20;39.10;;;;;;5069496;28;19951;-72
2022/05/04 01:02:36;;;;;;;;;;;24.20;39.10;;;;;;5070084;28;19935;-73
2022/05/04 01:05:04;;;;;;;;;;;24.20;39.10;;;;;;5069576;28;20015;-72
2022/05/04 01:07:31;;;;;;;;;;;24.20;39.20;;;;;;5070398;28;19924;-73
2022/05/04 01:09:58;;;;;;;;;;;24.10;39.20;;;;;;5068241;28;19931;-73
2022/05/04 01:12:25;;;;;;;;;;;24.10;39.20;;;;;;5067102;28;19928;-72
2022/05/04 01:14:52;;;;;;;;;;;24.10;39.20;;;;;;5069917;28;20467;-73
2022/05/04 01:17:19;;;;;;;;;;;24.10;39.30;;;;;;5069599;28;20019;-73
2022/05/04 01:19:46;;;;;;;;;;;24.10;39.30;;;;;;5070174;28;20212;-73
2022/05/04 01:22:13;;;;;;;;;;;24.10;39.40;;;;;;5067718;28;19925;-73
2022/05/04 01:24:40;;;;;;;;;;;24.10;39.40;;;;;;5069754;28;19928;-73
2022/05/04 01:27:11;;;;;;;;;;;24.10;39.40;;;;;;5068123;28;19928;-73
2022/05/04 01:29:38;;;;;;;;;;;24.10;39.40;;;;;;5069246;28;20411;-73
2022/05/04 01:32:05;;;;;;;;;;;24.00;39.40;;;;;;5069968;28;19929;-73
2022/05/04 01:34:32;;;;;;;;;;;24.10;39.40;;;;;;5071755;28;19947;-72
2022/05/04 01:37:00;;;;;;;;;;;24.10;39.40;;;;;;5073165;28;20281;-73
2022/05/04 01:39:27;;;;;;;;;;;24.10;39.50;;;;;;5074229;28;19972;-73
2022/05/04 01:42:03;;;;;;;;;;;24.00;39.60;;;;;;5068686;28;19929;-73
2022/05/04 01:44:31;;;;;;;;;;;24.00;39.40;;;;;;5074037;28;20352;-73
2022/05/04 01:46:58;;;;;;;;;;;24.00;39.40;;;;;;5072751;28;20014;-73
2022/05/04 01:49:25;;;;;;;;;;;24.00;39.40;;;;;;5073700;28;19974;-73
2022/05/04 01:51:52;;;;;;;;;;;24.00;39.30;;;;;;5073160;28;19947;-73
2022/05/04 01:54:19;;;;;;;;;;;24.10;39.40;;;;;;5072538;28;19963;-73
2022/05/04 01:56:46;;;;;;;;;;;24.10;39.30;;;;;;5073694;28;20318;-71
2022/05/04 01:59:13;;;;;;;;;;;24.10;39.30;;;;;;5072985;28;20429;-72
2022/05/04 02:01:41;;;;;;;;;;;24.10;39.30;;;;;;5072921;28;20027;-73
2022/05/04 02:04:08;;;;;;;;;;;24.10;39.30;;;;;;5072885;28;19929;-73
2022/05/04 02:06:36;;;;;;;;;;;24.10;39.30;;;;;;5072844;28;19974;-74
2022/05/04 02:09:04;;;;;;;;;;;24.10;39.30;;;;;;5073110;28;19924;-73
2022/05/04 02:11:32;;;;;;;;;;;24.10;39.20;;;;;;5072748;28;19924;-74
2022/05/04 02:13:59;;;;;;;;;;;24.00;39.20;;;;;;5068723;28;19975;-74
2022/05/04 02:16:26;;;;;;;;;;;24.10;39.20;;;;;;5072305;28;19928;-74
2022/05/04 02:18:53;;;;;;;;;;;24.00;39.20;;;;;;5072859;28;19932;-74
2022/05/04 02:21:20;;;;;;;;;;;24.00;39.20;;;;;;5072627;28;19960;-74
2022/05/04 02:23:47;;;;;;;;;;;24.00;39.20;;;;;;5072179;28;19978;-74
2022/05/04 02:26:14;;;;;;;;;;;24.00;39.20;;;;;;5073213;28;19924;-74
2022/05/04 02:28:43;;;;;;;;;;;24.10;39.20;;;;;;5070922;28;20385;-74
2022/05/04 02:31:10;;;;;;;;;;;24.10;39.20;;;;;;5072459;28;20074;-73
2022/05/04 02:33:37;;;;;;;;;;;24.10;39.20;;;;;;5072393;28;19928;-74
2022/05/04 02:38:51;;;;;;;;;;;24.10;39.20;;;;;;5072654;28;19924;-74
2022/05/04 02:41:18;;;;;;;;;;;24.00;39.20;;;;;;5072053;28;20331;-74
2022/05/04 02:43:45;;;;;;;;;;;24.00;39.20;;;;;;5072453;28;19931;-74
2022/05/04 02:46:13;;;;;;;;;;;24.00;39.20;;;;;;5067576;28;20284;-74
2022/05/04 02:48:40;;;;;;;;;;;24.00;39.20;;;;;;5072595;28;19946;-75
2022/05/04 02:51:07;;;;;;;;;;;24.00;39.20;;;;;;5072047;28;19929;-68
2022/05/04 02:53:34;;;;;;;;;;;24.00;39.20;;;;;;5070775;28;19924;-69
2022/05/04 02:56:02;;;;;;;;;;;24.00;39.20;;;;;;5071530;28;20179;-74
2022/05/04 02:58:29;;;;;;;;;;;24.00;39.20;;;;;;5071601;28;19982;-67
2022/05/04 03:02:26;;;;;;;;;;;24.00;39.20;;;;;;5072050;28;19925;-72
2022/05/04 03:03:52;;;;;;;;;;;23.90;39.20;;;;;;5071729;28;19977;-72
2022/05/04 03:06:19;;;;;;;;;;;23.90;39.30;;;;;;5071621;28;19925;-75
2022/05/04 03:08:46;;;;;;;;;;;23.90;39.30;;;;;;5072177;28;19929;-74
2022/05/04 03:14:00;;;;;;;;;;;23.90;39.40;;;;;;5070682;28;19929;-72
2022/05/04 03:16:27;;;;;;;;;;;23.90;39.40;;;;;;5067422;28;20001;-72
2022/05/04 03:18:54;;;;;;;;;;;23.90;39.40;;;;;;5071583;28;20022;-72
2022/05/04 03:21:21;;;;;;;;;;;23.90;39.50;;;;;;5072271;28;19929;-72
2022/05/04 03:23:48;;;;;;;;;;;23.90;39.50;;;;;;5071079;28;19998;-72
2022/05/04 03:26:15;;;;;;;;;;;23.90;39.50;;;;;;5071761;28;20412;-73
2022/05/04 03:28:42;;;;;;;;;;;23.90;39.50;;;;;;5071714;28;19970;-73
2022/05/04 03:31:09;;;;;;;;;;;23.80;39.50;;;;;;5071382;28;19928;-73
2022/05/04 03:33:36;;;;;;;;;;;23.80;39.50;;;;;;5059267;28;19950;-73
2022/05/04 03:36:03;;;;;;;;;;;23.90;39.50;;;;;;5062456;28;20265;-73
2022/05/04 03:38:30;;;;;;;;;;;23.90;39.40;;;;;;5066445;28;20239;-73
2022/05/04 03:40:57;;;;;;;;;;;23.90;39.30;;;;;;5068420;28;19924;-73
2022/05/04 03:43:24;;;;;;;;;;;23.90;39.30;;;;;;5064458;28;19925;-72
2022/05/04 03:45:51;;;;;;;;;;;23.90;39.20;;;;;;5051215;28;19975;-73
2022/05/04 03:48:18;;;;;;;;;;;23.90;39.20;;;;;;5046163;28;19924;-73
2022/05/04 03:50:46;;;;;;;;;;;23.90;39.20;;;;;;5069623;28;19985;-74
2022/05/04 03:53:13;;;;;;;;;;;24.00;39.20;;;;;;5073255;28;20465;-73
2022/05/04 03:55:40;;;;;;;;;;;23.90;39.10;;;;;;5068284;28;20381;-73
2022/05/04 03:58:07;;;;;;;;;;;23.90;39.10;;;;;;5069628;28;20128;-74
2022/05/04 04:00:34;;;;;;;;;;;23.90;39.10;;;;;;5068106;28;20435;-73
2022/05/04 04:03:01;;;;;;;;;;;24.00;39.10;;;;;;5069742;28;19986;-73
2022/05/04 04:05:29;;;;;;;;;;;24.00;39.10;;;;;;5069240;28;19925;-73
2022/05/04 04:07:56;;;;;;;;;;;24.00;39.10;;;;;;5069869;28;19924;-73
2022/05/04 04:10:23;;;;;;;;;;;24.00;39.00;;;;;;5070634;28;19924;-72
2022/05/04 04:12:50;;;;;;;;;;;24.00;39.00;;;;;;5069983;28;19925;-72
2022/05/04 04:15:17;;;;;;;;;;;24.00;39.00;;;;;;5059478;28;19928;-73
2022/05/04 04:17:44;;;;;;;;;;;24.10;39.00;;;;;;5060527;28;20352;-72
2022/05/04 04:23:01;;;;;;;;;;;24.10;39.00;;;;;;5066913;28;20372;-73
2022/05/04 04:25:28;;;;;;;;;;;24.10;38.90;;;;;;5065936;28;19925;-73
2022/05/04 04:27:55;;;;;;;;;;;24.10;38.90;;;;;;5069889;28;20446;-73
2022/05/04 04:30:22;;;;;;;;;;;24.10;38.80;;;;;;5069579;28;20312;-72
2022/05/04 04:32:49;;;;;;;;;;;24.10;38.80;;;;;;5070298;28;19973;-73
2022/05/04 04:35:16;;;;;;;;;;;24.10;38.80;;;;;;5068183;28;19925;-73
2022/05/04 04:37:43;;;;;;;;;;;24.10;38.70;;;;;;5070340;28;19925;-73
2022/05/04 04:40:10;;;;;;;;;;;24.20;38.80;;;;;;5070529;28;20141;-73
2022/05/04 04:42:37;;;;;;;;;;;24.20;38.70;;;;;;5069835;28;19966;-73
2022/05/04 04:45:04;;;;;;;;;;;24.20;38.60;;;;;;5067870;28;20404;-72
2022/05/04 04:47:31;;;;;;;;;;;24.20;38.60;;;;;;5059158;28;19960;-73
2022/05/04 04:49:59;;;;;;;;;;;24.20;38.60;;;;;;5049980;28;20006;-72
2022/05/04 04:52:25;;;;;;;;;;;24.20;38.60;;;;;;5061532;28;20446;-73
2022/05/04 04:54:52;;;;;;;;;;;24.20;38.60;;;;;;5068165;28;19929;-73
2022/05/04 04:57:19;;;;;;;;;;;24.20;38.60;;;;;;5069065;28;19924;-73
2022/05/04 04:59:49;;;;;;;;;;;24.30;38.60;;;;;;5070046;28;20261;-73
2022/05/04 05:02:17;;;;;;;;;;;24.30;38.60;;;;;;5070493;28;19935;-73
2022/05/04 05:04:44;;;;;;;;;;;24.30;38.60;;;;;;5071033;28;19920;-66
2022/05/04 05:10:35;;;;;;;;;;;24.30;38.40;;;;;;5064596;28;19950;-68
2022/05/04 05:13:03;;;;;;;;;;;24.30;38.20;;;;;;5056221;28;20417;-72
2022/05/04 05:21:50;;;;;;;;;;;24.40;38.00;;;;;;5065087;28;20000;-76
2022/05/04 05:24:17;;;;;;;;;;;24.50;37.90;;;;;;5079701;28;20562;-75
2022/05/04 05:26:44;;;;;;;;;;;24.50;37.80;;;;;;5065068;28;19982;-70
2022/05/04 05:29:11;;;;;;;;;;;24.50;37.80;;;;;;5054871;28;20373;-75
2022/05/04 05:31:38;;;;;;;;;;;24.60;37.80;;;;;;5066219;28;20434;-75
2022/05/04 05:37:40;;;;;;;;;;;24.60;37.80;;;;;;5070322;28;19953;-72
2022/05/04 05:44:09;;;;;;;;;;;24.60;37.60;;;;;;5068429;28;19955;-71
2022/05/04 05:46:36;;;;;;;;;;;24.70;37.60;;;;;;5074488;28;19924;-71
2022/05/04 05:56:27;;;;;;;;;;;24.70;37.40;;;;;;5079148;28;19924;-71
2022/05/04 05:58:54;;;;;;;;;;;24.80;37.40;;;;;;5077395;28;19924;-71
2022/05/04 06:01:21;;;;;;;;;;;24.80;37.30;;;;;;5078794;28;19924;-72
2022/05/04 06:03:50;;;;;;;;;;;24.80;37.30;;;;;;5078328;28;20022;-71
2022/05/04 06:06:17;;;;;;;;;;;24.80;37.20;;;;;;5476330;22;20246;-70
2022/05/04 06:08:44;;;;;;;;;;;24.90;37.20;;;;;;5054588;28;19970;-71
2022/05/04 06:11:11;;;;;;;;;;;24.90;37.20;;;;;;5050703;28;19979;-74
2022/05/04 06:19:35;;;;;;;;;;;24.90;37.20;;;;;;5055689;28;20030;-75
2022/05/04 06:22:03;;;;;;;;;;;25.00;37.20;;;;;;5035405;28;19920;-76
2022/05/04 06:24:30;;;;;;;;;;;25.00;37.20;;;;;;5040874;28;20407;-76
2022/05/04 06:26:57;;;;;;;;;;;25.10;37.30;;;;;;5058883;28;19987;-73
2022/05/04 06:34:06;;;;;;;;;;;25.00;37.20;;;;;;5058876;28;19978;-70
2022/05/04 06:35:52;;;;;;;;;;;25.10;37.30;;;;;;5029375;28;19933;-74
2022/05/04 06:38:20;;;;;;;;;;;25.10;37.30;;;;;;5035112;28;20329;-74
2022/05/04 06:40:48;;;;;;;;;;;25.10;37.30;;;;;;5018274;28;20353;-74
2022/05/04 06:43:15;;;;;;;;;;;25.20;37.80;;;;;;5016169;28;20396;-73
2022/05/04 06:45:42;;;;;;;;;;;25.20;37.20;;;;;;5007734;28;19956;-77
2022/05/04 06:48:11;;;;;;;;;;;25.20;37.70;;;;;;5015669;28;19931;-77
2022/05/04 06:50:38;;;;;;;;;;;25.20;37.10;;;;;;5006214;28;19977;-78
2022/05/04 06:53:05;;;;;;;;;;;25.30;37.10;;;;;;4997641;28;19926;-70
2022/05/04 06:55:41;;;;;;;;;;;25.30;37.10;;;;;;5011493;28;19921;-69
2022/05/04 06:58:08;;;;;;;;;;;25.40;37.10;;;;;;5016645;28;19929;-69
2022/05/04 07:01:00;;;;;;;;;;;25.40;37.10;;;;;;5016781;28;19921;-75
2022/05/04 07:03:31;;;;;;;;;;;25.40;37.00;;;;;;5037031;28;19932;-71
2022/05/04 07:09:20;;;;;;;;;;;25.50;37.00;;;;;;5030138;28;19975;-72
2022/05/04 07:15:55;;;;;;;;;;;25.60;37.10;;;;;;5038118;28;20343;-76
2022/05/04 07:18:23;;;;;;;;;;;25.60;36.90;;;;;;5037041;28;19925;-76
2022/05/04 07:20:50;;;;;;;;;;;25.70;37.00;;;;;;5037344;28;19929;-72
2022/05/04 07:23:20;;;;;;;;;;;25.70;36.90;;;;;;5035551;28;19921;-72
2022/05/04 07:25:47;;;;;;;;;;;25.70;36.90;;;;;;5036816;28;19929;-75
2022/05/04 07:28:20;;;;;;;;;;;25.70;36.80;;;;;;5035061;28;20045;-79
2022/05/04 07:30:47;;;;;;;;;;;25.80;36.80;;;;;;5039593;28;19925;-77
2022/05/04 07:37:08;;;;;;;;;;;25.80;37.10;;;;;;5038070;28;19928;-73
2022/05/04 07:42:40;;;;;;;;;;;25.90;37.20;;;;;;5030845;28;19928;-70
2022/05/04 07:45:24;;;;;;;;;;;26.00;37.10;;;;;;5038098;28;20383;-74
2022/05/04 07:51:13;;;;;;;;;;;26.00;36.70;;;;;;5032041;28;19975;-70
2022/05/04 07:53:40;;;;;;;;;;;26.00;36.70;;;;;;5037446;28;19983;-76
2022/05/04 07:56:07;;;;;;;;;;;26.00;36.70;;;;;;5019437;28;19963;-76
2022/05/04 07:58:34;;;;;;;;;;;26.10;36.70;;;;;;5050043;28;19984;-72
2022/05/04 08:06:35;;;;;;;;;;;26.20;36.50;;;;;;5017397;28;19926;-82
2022/05/04 08:09:02;;;;;;;;;;;26.20;36.20;;;;;;5017259;28;19929;-71
2022/05/04 08:11:29;;;;;;;;;;;26.30;36.30;;;;;;5017795;28;19961;-77
2022/05/04 08:13:56;;;;;;;;;;;26.30;36.20;;;;;;5016524;28;19980;-80
2022/05/04 08:21:56;;;;;;;;;;;26.40;36.00;;;;;;5541605;22;19927;-76
2022/05/04 08:28:01;;;;;;;;;;;26.40;35.80;;;;;;5051092;28;19959;-69
2022/05/04 08:33:54;;;;;;;;;;;26.50;35.60;;;;;;5056133;28;20343;-71
2022/05/04 08:39:32;;;;;;;;;;;26.60;35.50;;;;;;5057100;28;19937;-74
2022/05/04 08:42:00;;;;;;;;;;;26.60;35.50;;;;;;5056521;28;20447;-72
2022/05/04 08:44:28;;;;;;;;;;;26.70;35.50;;;;;;5056435;28;19932;-73
2022/05/04 08:46:55;;;;;;;;;;;26.70;35.40;;;;;;5056570;28;19925;-74
2022/05/04 08:49:22;;;;;;;;;;;26.70;35.30;;;;;;5057699;28;20447;-71
2022/05/04 08:51:50;;;;;;;;;;;26.70;35.50;;;;;;5048337;28;19921;-73
2022/05/04 08:54:17;;;;;;;;;;;26.80;35.80;;;;;;5045853;28;19928;-70
2022/05/04 08:56:44;;;;;;;;;;;26.80;35.90;;;;;;5055019;28;19925;-71
2022/05/04 09:06:09;;;;;;;;;;;27.00;35.90;;;;;;5046054;28;19995;-68
2022/05/04 09:09:10;;;;;;;;;;;27.00;35.90;;;;;;5040332;28;20332;-71
2022/05/04 09:11:39;;;;;;;;;;;27.10;35.80;;;;;;5055631;28;19928;-72
2022/05/04 09:14:08;;;;;;;;;;;27.10;35.40;;;;;;5055098;28;20325;-68
2022/05/04 09:16:35;;;;;;;;;;;27.10;35.10;;;;;;5054883;28;19921;-68
2022/05/04 09:30:04;;;;;;;;;;;27.20;34.50;;;;;;5046287;28;20063;-68
2022/05/04 09:32:31;;;;;;;;;;;27.30;34.60;;;;;;5054819;28;20387;-68
2022/05/04 09:35:01;;;;;;;;;;;27.30;34.50;;;;;;5057010;28;19932;-70
2022/05/04 09:51:27;;;;;;;;;;;27.40;33.80;;;;;;5165722;23;19929;-71
2022/05/04 09:53:54;;;;;;;;;;;27.50;33.90;;;;;;5089990;28;19942;-75
2022/05/04 09:56:21;;;;;;;;;;;27.50;33.80;;;;;;5081880;28;19951;-70
2022/05/04 09:58:48;;;;;;;;;;;27.50;33.70;;;;;;5090414;28;19927;-71
2022/05/04 10:01:15;;;;;;;;;;;27.50;33.40;;;;;;5087869;28;19931;-68
2022/05/04 10:03:44;;;;;;;;;;;27.50;33.20;;;;;;5093427;28;20380;-68
2022/05/04 10:06:11;;;;;;;;;;;27.50;33.30;;;;;;5094931;28;19928;-73
2022/05/04 10:08:38;;;;;;;;;;;27.50;33.00;;;;;;5082934;28;19920;-72
2022/05/04 10:11:05;;;;;;;;;;;27.50;32.90;;;;;;5099043;28;19924;-72
2022/05/04 10:17:00;;;;;;;;;;;27.50;32.70;;;;;;5082377;28;19927;-77
2022/05/04 10:19:29;;;;;;;;;;;27.50;32.60;;;;;;5077934;28;19925;-73
2022/05/04 10:21:57;;;;;;;;;;;27.60;32.60;;;;;;5074337;28;19924;-74
2022/05/04 10:24:27;;;;;;;;;;;27.60;32.60;;;;;;5088088;28;19935;-71
2022/05/04 10:27:14;;;;;;;;;;;27.60;32.50;;;;;;5084242;28;19920;-74
2022/05/04 10:33:11;;;;;;;;;;;27.60;32.40;;;;;;5076697;28;19955;-74
2022/05/04 10:35:41;;;;;;;;;;;27.50;32.20;;;;;;5089362;28;19973;-72
2022/05/04 10:38:10;;;;;;;;;;;27.50;32.30;;;;;;5095963;28;19921;-72
2022/05/04 10:40:46;;;;;;;;;;;27.50;32.30;;;;;;5088168;28;20364;-75
2022/05/04 10:50:11;;;;;;;;;;;27.50;32.30;;;;;;5059328;22;20427;-75
2022/05/04 10:52:45;;;;;;;;;;;27.50;32.30;;;;;;5046261;28;19984;-69
2022/05/04 10:55:12;;;;;;;;;;;27.40;32.20;;;;;;5059752;28;19920;-76
2022/05/04 10:58:11;;;;;;;;;;;27.40;32.20;;;;;;5065064;28;20258;-73
2022/05/04 11:12:19;;;;;;;;;;;27.50;32.10;;;;;;5077009;23;19932;-72
2022/05/04 11:15:09;;;;;;;;;;;27.50;32.10;;;;;;5069417;28;19921;-73
2022/05/04 11:17:36;;;;;;;;;;;27.50;32.10;;;;;;5053678;28;20339;-76
2022/05/04 11:20:12;;;;;;;;;;;27.50;32.10;;;;;;5056858;28;19940;-74
2022/05/04 11:22:57;;;;;;;;;;;27.50;32.00;;;;;;5045827;28;20288;-73
2022/05/04 11:25:24;;;;;;;;;;;27.50;32.00;;;;;;5068934;28;19924;-73
2022/05/04 11:28:23;;;;;;;;;;;27.50;31.90;;;;;;5049597;28;19932;-76
2022/05/04 11:38:46;;;;;;;;;;;27.50;32.30;;;;;;5048617;28;20382;-72
2022/05/04 11:41:13;;;;;;;;;;;27.50;32.30;;;;;;5046352;28;20013;-74
2022/05/04 11:43:40;;;;;;;;;;;27.50;32.90;;;;;;5040800;28;19947;-71
2022/05/04 11:49:54;;;;;;;;;;;27.60;32.50;;;;;;5040002;28;19963;-73
2022/05/04 11:52:22;;;;;;;;;;;27.60;32.70;;;;;;5055661;28;19935;-79
2022/05/04 11:54:49;;;;;;;;;;;27.60;32.40;;;;;;5057577;28;19924;-74
2022/05/04 11:57:19;;;;;;;;;;;27.60;32.20;;;;;;5057219;28;19978;-81
2022/05/04 11:59:50;;;;;;;;;;;27.60;32.10;;;;;;5029054;28;19925;-78
2022/05/04 12:02:18;;;;;;;;;;;27.70;32.10;;;;;;5052329;28;19925;-79
2022/05/04 12:04:47;;;;;;;;;;;27.70;32.00;;;;;;5055337;28;19925;-74
2022/05/04 12:07:14;;;;;;;;;;;27.70;31.90;;;;;;5058414;28;19983;-77
2022/05/04 12:09:41;;;;;;;;;;;27.70;31.70;;;;;;5054722;28;19978;-73
2022/05/04 12:12:08;;;;;;;;;;;27.70;31.70;;;;;;5055991;28;19994;-77
2022/05/04 12:14:35;;;;;;;;;;;27.70;31.60;;;;;;5031781;28;20364;-79
2022/05/04 12:17:03;;;;;;;;;;;27.70;31.60;;;;;;5048710;28;19978;-72
2022/05/04 12:26:15;;;;;;;;;;;27.70;31.50;;;;;;5053437;28;19975;-81
2022/05/04 12:28:42;;;;;;;;;;;27.70;31.40;;;;;;5056849;28;19925;-71
2022/05/04 12:33:57;;;;;;;;;;;27.70;31.30;;;;;;5056185;28;19925;-69
2022/05/04 12:36:24;;;;;;;;;;;27.70;31.30;;;;;;5056624;28;20335;-71
2022/05/04 12:38:52;;;;;;;;;;;27.70;31.20;;;;;;5056381;28;20343;-70
2022/05/04 12:41:20;;;;;;;;;;;27.70;31.30;;;;;;5056299;28;19978;-70
2022/05/04 12:43:48;;;;;;;;;;;27.70;31.30;;;;;;5056121;28;19978;-74
2022/05/04 12:47:03;;;;;;;;;;;27.70;31.30;;;;;;5052844;28;19928;-70
2022/05/04 12:50:05;;;;;;;;;;;27.70;31.30;;;;;;5038389;28;19974;-70
2022/05/04 12:58:51;;;;;;;;;;;27.60;31.10;;;;;;5044685;28;19932;-70
2022/05/04 13:01:25;;;;;;;;;;;27.60;31.00;;;;;;5052455;28;19963;-69
2022/05/04 13:03:52;;;;;;;;;;;27.60;31.00;;;;;;5046958;28;19920;-69
2022/05/04 13:09:51;;;;;;;;;;;27.50;31.00;;;;;;5050181;28;20438;-76
2022/05/04 13:12:18;;;;;;;;;;;27.50;30.90;;;;;;5036140;28;19920;-74
2022/05/04 13:14:45;;;;;;;;;;;27.50;30.90;;;;;;5057122;28;19925;-72
2022/05/04 13:17:12;;;;;;;;;;;27.60;31.10;;;;;;5056715;28;19971;-72
2022/05/04 13:19:39;;;;;;;;;;;27.60;31.10;;;;;;5068658;28;19983;-75
2022/05/04 13:25:38;;;;;;;;;;;27.50;31.10;;;;;;5063616;28;19967;-70
2022/05/04 13:28:05;;;;;;;;;;;27.50;31.20;;;;;;5075649;28;19924;-72
2022/05/04 13:30:32;;;;;;;;;;;27.50;31.10;;;;;;5075834;28;19995;-73
2022/05/04 13:33:01;;;;;;;;;;;27.50;31.00;;;;;;5030446;28;19975;-71
2022/05/04 13:35:28;;;;;;;;;;;27.50;31.00;;;;;;5054872;28;20028;-71
2022/05/04 13:37:55;;;;;;;;;;;27.60;31.00;;;;;;5053512;28;19927;-72
2022/05/04 13:40:22;;;;;;;;;;;27.60;30.90;;;;;;5054827;28;20301;-75
2022/05/04 13:46:13;;;;;;;;;;;27.60;30.90;;;;;;5058521;28;19931;-75
2022/05/04 13:48:40;;;;;;;;;;;27.50;30.90;;;;;;5061584;28;20372;-75
2022/05/04 13:53:54;;;;;;;;;;;27.50;31.10;;;;;;5040530;28;19925;-72
2022/05/04 13:59:43;;;;;;;;;;;27.50;31.10;;;;;;5059147;28;20008;-74
2022/05/04 14:02:10;;;;;;;;;;;27.50;31.20;;;;;;5055814;28;19967;-70
2022/05/04 14:04:37;;;;;;;;;;;27.50;31.30;;;;;;5054503;28;19924;-75
2022/05/04 14:07:04;;;;;;;;;;;27.60;31.60;;;;;;5058438;28;20710;-68
2022/05/04 14:13:04;;;;;;;;;;;27.60;31.40;;;;;;5048440;28;19946;-69
2022/05/04 14:15:31;;;;;;;;;;;27.60;31.30;;;;;;5061335;28;19998;-71
2022/05/04 14:17:58;;;;;;;;;;;27.60;31.30;;;;;;5058920;28;19982;-68
2022/05/04 14:20:25;;;;;;;;;;;27.60;31.20;;;;;;5053673;28;19932;-68
2022/05/04 14:30:43;;;;;;;;;;;27.60;31.30;;;;;;5052844;28;20420;-68
2022/05/04 14:33:10;;;;;;;;;;;27.60;31.40;;;;;;5049219;28;19970;-72
2022/05/04 14:35:37;;;;;;;;;;;27.60;31.30;;;;;;5041016;28;19932;-71
2022/05/04 14:38:04;;;;;;;;;;;27.60;31.40;;;;;;5057382;28;19925;-74
2022/05/04 14:40:31;;;;;;;;;;;27.50;31.30;;;;;;5031854;28;19929;-78
2022/05/04 14:42:59;;;;;;;;;;;27.50;31.40;;;;;;5050668;28;19925;-77
2022/05/04 14:45:26;;;;;;;;;;;27.50;31.50;;;;;;5052746;28;19933;-74
2022/05/04 14:47:55;;;;;;;;;;;27.60;31.50;;;;;;5052135;28;20188;-72
2022/05/04 14:50:22;;;;;;;;;;;27.50;31.30;;;;;;5050023;28;19933;-71
2022/05/04 14:52:49;;;;;;;;;;;27.50;31.30;;;;;;5046143;28;19929;-73
2022/05/04 14:55:16;;;;;;;;;;;27.50;31.20;;;;;;5051043;28;20424;-71
2022/05/04 14:57:43;;;;;;;;;;;27.60;31.30;;;;;;5051610;28;19925;-71
2022/05/04 15:00:11;;;;;;;;;;;27.60;31.20;;;;;;5051518;28;19924;-71
2022/05/04 15:05:01;;;;;;;;;;;27.60;31.20;;;;;;5050981;28;20394;-73
2022/05/04 15:05:25;;;;;;;;;;;27.60;31.20;;;;;;5050647;28;19990;-73
2022/05/04 15:07:52;;;;;;;;;;;27.60;31.10;;;;;;5052198;28;19925;-71
2022/05/04 15:10:21;;;;;;;;;;;27.60;31.10;;;;;;5051473;28;19924;-71
2022/05/04 15:12:48;;;;;;;;;;;27.60;31.10;;;;;;5051208;28;19932;-71
2022/05/04 15:15:15;;;;;;;;;;;27.60;31.10;;;;;;5051105;28;20298;-71
2022/05/04 15:17:42;;;;;;;;;;;27.70;31.40;;;;;;5052138;28;20387;-71
2022/05/04 15:20:10;;;;;;;;;;;27.70;31.40;;;;;;5051800;28;20288;-72
2022/05/04 15:22:37;;;;;;;;;;;27.70;31.70;;;;;;5052226;28;20393;-72
2022/05/04 15:25:04;;;;;;;;;;;27.70;31.70;;;;;;5047741;28;19925;-72
2022/05/04 15:27:31;;;;;;;;;;;27.80;31.90;;;;;;5052228;28;19940;-75
2022/05/04 15:29:58;;;;;;;;;;;27.70;31.80;;;;;;5050819;28;19976;-72
2022/05/04 15:32:25;;;;;;;;;;;27.80;31.80;;;;;;5051567;28;19928;-73
2022/05/04 15:34:52;;;;;;;;;;;27.80;31.30;;;;;;5033491;28;20596;-73
2022/05/04 15:37:19;;;;;;;;;;;27.80;31.10;;;;;;5049947;28;19925;-73
2022/05/04 15:39:46;;;;;;;;;;;27.90;31.10;;;;;;5031986;28;19925;-73
2022/05/04 15:42:13;;;;;;;;;;;27.90;31.00;;;;;;5031162;28;19925;-73
2022/05/04 15:44:40;;;;;;;;;;;27.90;30.90;;;;;;5031732;28;19956;-73
2022/05/04 15:47:07;;;;;;;;;;;27.90;30.90;;;;;;5031049;28;19925;-73
2022/05/04 15:49:34;;;;;;;;;;;27.90;30.70;;;;;;5031732;28;19924;-73
2022/05/04 15:52:01;;;;;;;;;;;27.90;31.10;;;;;;5030738;28;19929;-69
2022/05/04 15:54:28;;;;;;;;;;;27.90;31.10;;;;;;5030765;28;19932;-69
2022/05/04 15:56:55;;;;;;;;;;;28.00;31.70;;;;;;5025639;28;19960;-72
2022/05/04 15:59:22;;;;;;;;;;;27.90;34.90;;;;;;5030806;28;20120;-72
2022/05/04 16:01:49;;;;;;;;;;;27.90;36.30;;;;;;5030075;28;19938;-71
2022/05/04 16:04:16;;;;;;;;;;;28.00;36.30;;;;;;5031408;28;19932;-71
2022/05/04 16:06:43;;;;;;;;;;;28.00;34.90;;;;;;5031139;28;19929;-73
2022/05/04 16:09:10;;;;;;;;;;;28.00;34.30;;;;;;5031100;28;20381;-72
2022/05/04 16:11:38;;;;;;;;;;;28.00;33.80;;;;;;5030616;28;19929;-69
2022/05/04 16:14:05;;;;;;;;;;;28.00;33.60;;;;;;5031191;28;19991;-71
2022/05/04 16:16:32;;;;;;;;;;;28.00;34.10;;;;;;5030829;28;19937;-71
2022/05/04 16:21:48;;;;;;;;;;;28.00;36.90;;;;;;5030990;28;19925;-72
2022/05/04 16:24:16;;;;;;;;;;;28.00;36.90;;;;;;5030728;28;19925;-72
2022/05/04 16:26:45;;;;;;;;;;;28.00;35.80;;;;;;5025356;28;19937;-72
2022/05/04 16:29:12;;;;;;;;;;;28.00;34.70;;;;;;5030896;28;19936;-72
2022/05/04 16:31:43;;;;;;;;;;;28.00;34.10;;;;;;5033779;28;19951;-72
2022/05/04 16:34:12;;;;;;;;;;;28.00;33.60;;;;;;5050808;28;20353;-72
2022/05/04 16:36:39;;;;;;;;;;;28.00;33.20;;;;;;5049513;28;20499;-72
2022/05/04 16:39:26;;;;;;;;;;;28.00;32.50;;;;;;5049376;28;19975;-71
2022/05/04 16:41:54;;;;;;;;;;;28.00;32.50;;;;;;5049611;28;19925;-71
2022/05/04 16:44:21;;;;;;;;;;;28.10;31.70;;;;;;5050212;28;20123;-72
2022/05/04 16:46:50;;;;;;;;;;;28.10;31.90;;;;;;5050144;28;20177;-71
2022/05/04 16:49:17;;;;;;;;;;;28.00;32.20;;;;;;5049853;28;19929;-71
2022/05/04 16:51:44;;;;;;;;;;;28.10;32.60;;;;;;5050294;28;19925;-71
2022/05/04 16:54:13;;;;;;;;;;;28.00;32.70;;;;;;5049615;28;19948;-71
2022/05/04 16:56:40;;;;;;;;;;;28.00;32.80;;;;;;5049221;28;19936;-71
2022/05/04 16:59:08;;;;;;;;;;;28.00;32.90;;;;;;5044673;28;20514;-72
2022/05/04 17:01:42;;;;;;;;;;;28.00;33.00;;;;;;5049037;28;19928;-72
2022/05/04 17:04:09;;;;;;;;;;;28.00;33.10;;;;;;5047798;28;20407;-72
2022/05/04 17:06:36;;;;;;;;;;;28.00;33.10;;;;;;5048644;28;19925;-72
2022/05/04 17:09:05;;;;;;;;;;;28.00;33.10;;;;;;5048995;28;20451;-71
2022/05/04 17:11:33;;;;;;;;;;;28.00;33.20;;;;;;5047855;28;19940;-71
2022/05/04 17:14:00;;;;;;;;;;;28.00;33.40;;;;;;5048511;28;19925;-72
2022/05/04 17:16:27;;;;;;;;;;;28.00;33.40;;;;;;5048424;28;19975;-71
2022/05/04 17:18:54;;;;;;;;;;;28.00;33.50;;;;;;5048892;28;19932;-72
2022/05/04 17:21:21;;;;;;;;;;;28.00;33.50;;;;;;5048951;28;20163;-72
2022/05/04 17:23:48;;;;;;;;;;;28.00;33.50;;;;;;5048885;28;19925;-72
2022/05/04 17:26:15;;;;;;;;;;;27.90;33.50;;;;;;5048884;28;19951;-72
2022/05/04 17:28:42;;;;;;;;;;;27.90;33.60;;;;;;5038152;28;19928;-73
2022/05/04 17:31:09;;;;;;;;;;;27.90;33.70;;;;;;5035566;28;20368;-72
2022/05/04 17:39:10;;;;;;;;;;;27.70;33.80;;;;;;5028244;28;19952;-71
2022/05/04 17:41:38;;;;;;;;;;;27.60;33.80;;;;;;5029233;28;19991;-71
2022/05/04 17:44:07;;;;;;;;;;;27.60;34.00;;;;;;5028808;28;20554;-72
2022/05/04 17:46:35;;;;;;;;;;;27.50;34.00;;;;;;5028750;28;19956;-72